Terminal Aerodrome Forecast
Issued by NWS Mt. Holly, NJ

Home | Current Version | Previous Version | Text Only | Print | Product List | Glossary On
Versions: 1 2 3 4 5 6 7 8 9 10 11 12 13 14 15 16 17 18 19
053
FTUS41 KPHI 181734
TAFILG
TAF
KILG 181734Z 1818/1918 22008KT P6SM OVC015
     FM181900 21010KT P6SM SCT015 BKN050
     FM182100 20008KT 3SM SHRA BKN025 OVC050
      TEMPO 1821/1901 28015G30KT 2SM TSRA BKN025CB
     FM190100 22005KT P6SM BKN050 BKN090
      TEMPO 1901/1903 3SM SHRA BKN025
     FM190400 VRB05KT 3SM BR BKN025
     FM190600 VRB04KT 2SM BR OVC008
     FM191200 32005KT 4SM BR SCT008
     FM191500 29008KT P6SM FEW250=

USA.gov is the U.S. government's official web portal to all federal, state and local government web resources and services.